Time,TemperatureF,DewpointF,PressureIn,WindDirection,WindDirectionDegrees,WindSpeedMPH,WindSpeedGustMPH,Humidity,HourlyPrecipIn,Conditions,Clouds,dailyrainin,SoftwareType,DateUTC
2013-09-06 00:11:00,52.2,45.0,30.18,NW,319,0.0,5.0,75,0.00,,,0.00,weatherlink.com 1.10,2013-09-06 04:11:00,
2013-09-06 00:27:00,51.5,44.0,30.18,NW,315,2.0,3.0,76,0.00,,,0.00,weatherlink.com 1.10,2013-09-06 04:27:00,
2013-09-06 00:42:00,50.9,44.0,30.18,NW,325,0.0,1.0,77,0.00,,,0.00,weatherlink.com 1.10,2013-09-06 04:42:00,
2013-09-06 00:57:00,50.0,44.0,30.18,NNW,341,0.0,1.0,80,0.00,,,0.00,weatherlink.com 1.10,2013-09-06 04:57:00,
2013-09-06 01:12:00,49.6,44.0,30.18,NW,321,1.0,2.0,80,0.00,,,0.00,weatherlink.com 1.10,2013-09-06 05:12:00,
2013-09-06 01:27:00,49.6,44.0,30.18,NW,316,0.0,1.0,80,0.00,,,0.00,weatherlink.com 1.10,2013-09-06 05:27:00,
2013-09-06 01:42:00,49.7,43.0,30.19,NNW,345,1.0,2.0,77,0.00,,,0.00,weatherlink.com 1.10,2013-09-06 05:42:00,
2013-09-06 01:57:00,50.5,43.0,30.19,NW,315,0.0,3.0,74,0.00,,,0.00,weatherlink.com 1.10,2013-09-06 05:57:00,
2013-09-06 02:12:00,50.2,42.0,30.19,North,360,0.0,2.0,74,0.00,,,0.00,weatherlink.com 1.10,2013-09-06 06:12:00,
2013-09-06 02:27:00,49.9,42.0,30.19,NNW,338,0.0,2.0,75,0.00,,,0.00,weatherlink.com 1.10,2013-09-06 06:27:00,
2013-09-06 02:42:00,48.9,42.0,30.19,North,349,0.0,1.0,78,0.00,,,0.00,weatherlink.com 1.10,2013-09-06 06:42:00,
2013-09-06 02:57:00,46.9,42.0,30.20,NNW,348,0.0,0.0,83,0.00,,,0.00,weatherlink.com 1.10,2013-09-06 06:57:00,
2013-09-06 03:12:00,45.9,42.0,30.19,NNW,348,0.0,0.0,86,0.00,,,0.00,weatherlink.com 1.10,2013-09-06 07:12:00,
2013-09-06 03:27:00,44.4,41.0,30.20,NNW,348,0.0,0.0,89,0.00,,,0.00,weatherlink.com 1.10,2013-09-06 07:27:00,
2013-09-06 03:42:00,43.6,41.0,30.20,NNW,348,0.0,0.0,91,0.00,,,0.00,weatherlink.com 1.10,2013-09-06 07:42:00,
2013-09-06 03:57:00,43.5,41.0,30.21,SSE,148,0.0,2.0,92,0.00,,,0.00,weatherlink.com 1.10,2013-09-06 07:57:00,
2013-09-06 04:12:00,43.3,42.0,30.22,SSE,148,0.0,1.0,94,0.00,,,0.00,weatherlink.com 1.10,2013-09-06 08:12:00,
2013-09-06 04:27:00,43.2,42.0,30.23,SSE,148,0.0,1.0,94,0.00,,,0.00,weatherlink.com 1.10,2013-09-06 08:27:00,
2013-09-06 04:42:00,42.9,41.0,30.22,SSE,148,0.0,1.0,94,0.00,,,0.00,weatherlink.com 1.10,2013-09-06 08:42:00,
2013-09-06 04:57:00,42.3,41.0,30.22,SSE,148,0.0,0.0,95,0.00,,,0.00,weatherlink.com 1.10,2013-09-06 08:57:00,
2013-09-06 05:12:00,41.9,41.0,30.22,SSE,148,0.0,0.0,95,0.00,,,0.00,weatherlink.com 1.10,2013-09-06 09:12:00,
2013-09-06 05:27:00,41.4,40.0,30.22,SSE,148,0.0,0.0,95,0.00,,,0.00,weatherlink.com 1.10,2013-09-06 09:27:00,
2013-09-06 05:42:00,41.3,40.0,30.23,SSE,148,0.0,0.0,96,0.00,,,0.00,weatherlink.com 1.10,2013-09-06 09:42:00,
2013-09-06 05:57:00,41.0,40.0,30.23,SSE,148,0.0,1.0,96,0.00,,,0.00,weatherlink.com 1.10,2013-09-06 09:57:00,
2013-09-06 06:12:00,40.7,40.0,30.24,SSE,148,0.0,0.0,96,0.00,,,0.00,weatherlink.com 1.10,2013-09-06 10:12:00,
2013-09-06 06:28:00,40.4,39.0,30.24,South,188,0.0,2.0,96,0.00,,,0.00,weatherlink.com 1.10,2013-09-06 10:28:00,
2013-09-06 06:43:00,40.4,40.0,30.25,South,188,0.0,0.0,97,0.00,,,0.00,weatherlink.com 1.10,2013-09-06 10:43:00,
2013-09-06 06:58:00,40.6,40.0,30.25,South,183,0.0,0.0,97,0.00,,,0.00,weatherlink.com 1.10,2013-09-06 10:58:00,
2013-09-06 07:13:00,41.2,41.0,30.25,South,183,0.0,0.0,98,0.00,,,0.00,weatherlink.com 1.10,2013-09-06 11:13:00,
2013-09-06 07:28:00,42.2,42.0,30.25,South,183,0.0,0.0,98,0.00,,,0.00,weatherlink.com 1.10,2013-09-06 11:28:00,
2013-09-06 07:43:00,43.3,43.0,30.26,South,183,0.0,0.0,98,0.00,,,0.00,weatherlink.com 1.10,2013-09-06 11:43:00,
2013-09-06 07:58:00,44.9,44.0,30.26,South,183,0.0,0.0,98,0.00,,,0.00,weatherlink.com 1.10,2013-09-06 11:58:00,
2013-09-06 08:13:00,47.1,47.0,30.26,SE,141,0.0,0.0,98,0.00,,,0.00,weatherlink.com 1.10,2013-09-06 12:13:00,
2013-09-06 08:28:00,49.3,47.0,30.26,ESE,110,0.0,0.0,91,0.00,,,0.00,weatherlink.com 1.10,2013-09-06 12:28:00,
2013-09-06 08:43:00,50.9,46.0,30.26,NE,54,0.0,2.0,84,0.00,,,0.00,weatherlink.com 1.10,2013-09-06 12:43:00,
2013-09-06 08:58:00,51.9,48.0,30.27,NE,37,0.0,1.0,85,0.00,,,0.00,weatherlink.com 1.10,2013-09-06 12:58:00,
2013-09-06 09:13:00,52.9,47.0,30.27,NE,50,1.0,1.0,80,0.00,,,0.00,weatherlink.com 1.10,2013-09-06 13:13:00,
2013-09-06 09:28:00,54.1,48.0,30.27,NNE,22,0.0,2.0,80,0.00,,,0.00,weatherlink.com 1.10,2013-09-06 13:28:00,
2013-09-06 09:43:00,55.1,48.0,30.27,NE,44,0.0,2.0,78,0.00,,,0.00,weatherlink.com 1.10,2013-09-06 13:43:00,
2013-09-06 09:58:00,57.2,50.0,30.27,NE,49,1.0,2.0,76,0.00,,,0.00,weatherlink.com 1.10,2013-09-06 13:58:00,
2013-09-06 10:13:00,58.7,48.0,30.27,NNW,337,1.0,3.0,68,0.00,,,0.00,weatherlink.com 1.10,2013-09-06 14:13:00,
2013-09-06 10:28:00,59.8,46.0,30.27,ENE,68,2.0,3.0,60,0.00,,,0.00,weatherlink.com 1.10,2013-09-06 14:28:00,
2013-09-06 10:43:00,61.7,46.0,30.27,ENE,74,0.0,3.0,57,0.00,,,0.00,weatherlink.com 1.10,2013-09-06 14:43:00,
2013-09-06 10:58:00,63.4,47.0,30.27,ENE,71,2.0,3.0,56,0.00,,,0.00,weatherlink.com 1.10,2013-09-06 14:58:00,
2013-09-06 11:13:00,63.4,44.0,30.26,SW,226,0.0,4.0,50,0.00,,,0.00,weatherlink.com 1.10,2013-09-06 15:13:00,
2013-09-06 11:28:00,63.7,43.0,30.26,NNE,32,1.0,4.0,47,0.00,,,0.00,weatherlink.com 1.10,2013-09-06 15:28:00,
2013-09-06 11:43:00,64.4,44.0,30.25,NNW,340,3.0,4.0,48,0.00,,,0.00,weatherlink.com 1.10,2013-09-06 15:43:00,
2013-09-06 11:58:00,64.1,43.0,30.25,West,278,1.0,5.0,46,0.00,,,0.00,weatherlink.com 1.10,2013-09-06 15:58:00,
2013-09-06 12:13:00,64.8,44.0,30.24,SSW,212,0.0,3.0,48,0.00,,,0.00,weatherlink.com 1.10,2013-09-06 16:13:00,
2013-09-06 12:43:00,65.5,42.0,30.23,ENE,75,2.0,5.0,43,0.00,,,0.00,weatherlink.com 1.10,2013-09-06 16:43:00,
2013-09-06 12:59:00,67.4,45.0,30.23,East,86,1.0,7.0,45,0.00,,,0.00,weatherlink.com 1.10,2013-09-06 16:59:00,
2013-09-06 13:14:00,67.4,41.0,30.22,NW,325,2.0,4.0,39,0.00,,,0.00,weatherlink.com 1.10,2013-09-06 17:14:00,
2013-09-06 13:29:00,66.9,43.0,30.21,SSE,160,0.0,1.0,42,0.00,,,0.00,weatherlink.com 1.10,2013-09-06 17:29:00,
2013-09-06 13:44:00,67.5,42.0,30.21,NW,322,3.0,4.0,39,0.00,,,0.00,weatherlink.com 1.10,2013-09-06 17:44:00,
2013-09-06 13:59:00,67.0,43.0,30.20,NE,41,0.0,5.0,42,0.00,,,0.00,weatherlink.com 1.10,2013-09-06 17:59:00,
2013-09-06 14:14:00,68.7,45.0,30.20,WNW,302,5.0,5.0,43,0.00,,,0.00,weatherlink.com 1.10,2013-09-06 18:14:00,
2013-09-06 14:29:00,67.7,44.0,30.19,NW,326,1.0,7.0,43,0.00,,,0.00,weatherlink.com 1.10,2013-09-06 18:29:00,
2013-09-06 14:44:00,68.3,42.0,30.19,West,278,2.0,6.0,39,0.00,,,0.00,weatherlink.com 1.10,2013-09-06 18:44:00,
2013-09-06 14:59:00,67.6,42.0,30.18,WNW,297,1.0,7.0,40,0.00,,,0.00,weatherlink.com 1.10,2013-09-06 18:59:00,
2013-09-06 15:14:00,68.9,48.0,30.17,North,355,2.0,4.0,47,0.00,,,0.00,weatherlink.com 1.10,2013-09-06 19:14:00,
2013-09-06 15:29:00,70.4,45.0,30.17,NNW,336,1.0,3.0,41,0.00,,,0.00,weatherlink.com 1.10,2013-09-06 19:29:00,
2013-09-06 15:44:00,70.2,43.0,30.17,NW,312,0.0,4.0,37,0.00,,,0.00,weatherlink.com 1.10,2013-09-06 19:44:00,
2013-09-06 15:59:00,71.1,45.0,30.16,SE,124,0.0,3.0,39,0.00,,,0.00,weatherlink.com 1.10,2013-09-06 19:59:00,
2013-09-06 16:14:00,73.5,43.0,30.15,ESE,105,0.0,1.0,34,0.00,,,0.00,weatherlink.com 1.10,2013-09-06 20:14:00,
2013-09-06 16:29:00,72.1,44.0,30.15,WNW,301,1.0,3.0,36,0.00,,,0.00,weatherlink.com 1.10,2013-09-06 20:29:00,
2013-09-06 16:44:00,72.7,45.0,30.15,NW,314,1.0,3.0,37,0.00,,,0.00,weatherlink.com 1.10,2013-09-06 20:44:00,
2013-09-06 16:59:00,71.8,47.0,30.15,NW,317,3.0,4.0,42,0.00,,,0.00,weatherlink.com 1.10,2013-09-06 20:59:00,
2013-09-06 17:14:00,72.7,46.0,30.14,NE,50,1.0,2.0,38,0.00,,,0.00,weatherlink.com 1.10,2013-09-06 21:14:00,
2013-09-06 17:29:00,71.6,44.0,30.14,West,276,0.0,2.0,37,0.00,,,0.00,weatherlink.com 1.10,2013-09-06 21:29:00,
2013-09-06 17:44:00,71.9,52.0,30.14,ENE,58,0.0,4.0,50,0.00,,,0.00,weatherlink.com 1.10,2013-09-06 21:44:00,
2013-09-06 17:59:00,69.3,53.0,30.14,SW,214,0.0,1.0,56,0.00,,,0.00,weatherlink.com 1.10,2013-09-06 21:59:00,
2013-09-06 18:14:00,67.1,53.0,30.13,SW,225,0.0,1.0,62,0.00,,,0.00,weatherlink.com 1.10,2013-09-06 22:14:00,
2013-09-06 18:29:00,66.9,51.0,30.13,SSW,208,0.0,2.0,57,0.00,,,0.00,weatherlink.com 1.10,2013-09-06 22:29:00,
2013-09-06 18:44:00,65.4,50.0,30.13,SW,231,2.0,4.0,57,0.00,,,0.00,weatherlink.com 1.10,2013-09-06 22:44:00,
2013-09-06 18:59:00,63.0,49.0,30.13,SSW,193,0.0,4.0,60,0.00,,,0.00,weatherlink.com 1.10,2013-09-06 22:59:00,
2013-09-06 19:14:00,60.5,49.0,30.13,SSW,207,1.0,3.0,66,0.00,,,0.00,weatherlink.com 1.10,2013-09-06 23:14:00,
2013-09-06 19:29:00,59.2,48.0,30.13,SW,228,0.0,4.0,67,0.00,,,0.00,weatherlink.com 1.10,2013-09-06 23:29:00,
2013-09-06 19:44:00,58.0,50.0,30.13,ESE,110,0.0,2.0,75,0.00,,,0.00,weatherlink.com 1.10,2013-09-06 23:44:00,
2013-09-06 19:59:00,56.5,50.0,30.12,ESE,111,0.0,0.0,79,0.00,,,0.00,weatherlink.com 1.10,2013-09-06 23:59:00,
2013-09-06 20:14:00,55.1,50.0,30.12,ESE,111,0.0,0.0,83,0.00,,,0.00,weatherlink.com 1.10,2013-09-07 00:14:00,
2013-09-06 20:29:00,54.5,50.0,30.13,ENE,60,0.0,1.0,84,0.00,,,0.00,weatherlink.com 1.10,2013-09-07 00:29:00,
2013-09-06 20:44:00,52.9,49.0,30.13,ENE,60,0.0,0.0,87,0.00,,,0.00,weatherlink.com 1.10,2013-09-07 00:44:00,
2013-09-06 20:59:00,52.1,49.0,30.13,ENE,60,0.0,0.0,88,0.00,,,0.00,weatherlink.com 1.10,2013-09-07 00:59:00,
2013-09-06 21:14:00,51.7,49.0,30.12,ENE,60,0.0,0.0,90,0.00,,,0.00,weatherlink.com 1.10,2013-09-07 01:14:00,
2013-09-06 21:29:00,51.7,49.0,30.12,ENE,60,0.0,0.0,90,0.00,,,0.00,weatherlink.com 1.10,2013-09-07 01:29:00,
2013-09-06 21:44:00,51.7,49.0,30.12,ENE,60,0.0,0.0,91,0.00,,,0.00,weatherlink.com 1.10,2013-09-07 01:44:00,
2013-09-06 21:59:00,51.3,49.0,30.12,ENE,60,0.0,0.0,92,0.00,,,0.00,weatherlink.com 1.10,2013-09-07 01:59:00,
2013-09-06 22:14:00,50.7,49.0,30.12,SE,137,0.0,1.0,93,0.00,,,0.00,weatherlink.com 1.10,2013-09-07 02:14:00,
2013-09-06 22:29:00,50.4,49.0,30.12,SW,218,0.0,2.0,93,0.00,,,0.00,weatherlink.com 1.10,2013-09-07 02:29:00,
2013-09-06 22:44:00,50.1,49.0,30.12,SW,215,0.0,1.0,94,0.00,,,0.00,weatherlink.com 1.10,2013-09-07 02:44:00,
2013-09-06 22:59:00,49.7,48.0,30.11,SSW,203,0.0,0.0,95,0.00,,,0.00,weatherlink.com 1.10,2013-09-07 02:59:00,
2013-09-06 23:14:00,49.3,48.0,30.11,SSW,203,0.0,1.0,95,0.00,,,0.00,weatherlink.com 1.10,2013-09-07 03:14:00,
2013-09-06 23:29:00,49.1,48.0,30.11,ESE,122,0.0,0.0,95,0.00,,,0.00,weatherlink.com 1.10,2013-09-07 03:29:00,
2013-09-06 23:44:00,48.8,48.0,30.11,ESE,121,0.0,0.0,95,0.00,,,0.00,weatherlink.com 1.10,2013-09-07 03:44:00,
2013-09-06 23:59:00,48.4,47.0,30.10,ESE,121,0.0,0.0,96,0.00,,,0.00,weatherlink.com 1.10,2013-09-07 03:59:00,